sensor_id;sensor_type;location;lat;lon;timestamp;P1;durP1;ratioP1;P2;durP2;ratioP2
15285;SDS011;7744;52.172;10.668;2023-09-08T00:00:49;6.63;;;5.95;;
15285;SDS011;7744;52.172;10.668;2023-09-08T00:03:14;6.40;;;5.80;;
15285;SDS011;7744;52.172;10.668;2023-09-08T00:05:40;7.80;;;6.32;;
15285;SDS011;7744;52.172;10.668;2023-09-08T00:08:06;6.68;;;5.50;;
15285;SDS011;7744;52.172;10.668;2023-09-08T00:10:31;6.15;;;5.65;;
15285;SDS011;7744;52.172;10.668;2023-09-08T00:12:57;6.00;;;5.45;;
15285;SDS011;7744;52.172;10.668;2023-09-08T00:15:23;6.85;;;6.25;;
15285;SDS011;7744;52.172;10.668;2023-09-08T00:17:48;6.57;;;5.97;;
15285;SDS011;7744;52.172;10.668;2023-09-08T00:20:14;6.20;;;5.50;;
15285;SDS011;7744;52.172;10.668;2023-09-08T00:22:40;7.60;;;5.88;;
15285;SDS011;7744;52.172;10.668;2023-09-08T00:25:06;6.32;;;5.72;;
15285;SDS011;7744;52.172;10.668;2023-09-08T00:27:31;6.43;;;5.82;;
15285;SDS011;7744;52.172;10.668;2023-09-08T00:29:57;6.65;;;6.00;;
15285;SDS011;7744;52.172;10.668;2023-09-08T00:32:23;7.70;;;6.35;;
15285;SDS011;7744;52.172;10.668;2023-09-08T00:34:49;6.50;;;5.90;;
15285;SDS011;7744;52.172;10.668;2023-09-08T00:37:14;7.13;;;6.25;;
15285;SDS011;7744;52.172;10.668;2023-09-08T00:39:40;7.03;;;6.43;;
15285;SDS011;7744;52.172;10.668;2023-09-08T00:42:06;6.35;;;5.70;;
15285;SDS011;7744;52.172;10.668;2023-09-08T00:44:34;7.15;;;6.45;;
15285;SDS011;7744;52.172;10.668;2023-09-08T00:47:00;6.07;;;5.47;;
15285;SDS011;7744;52.172;10.668;2023-09-08T00:49:25;6.55;;;5.95;;
15285;SDS011;7744;52.172;10.668;2023-09-08T00:51:51;7.03;;;6.25;;
15285;SDS011;7744;52.172;10.668;2023-09-08T00:54:17;6.63;;;6.03;;
15285;SDS011;7744;52.172;10.668;2023-09-08T00:56:43;7.00;;;6.30;;
15285;SDS011;7744;52.172;10.668;2023-09-08T00:59:11;7.72;;;5.97;;
15285;SDS011;7744;52.172;10.668;2023-09-08T01:01:37;6.22;;;5.70;;
15285;SDS011;7744;52.172;10.668;2023-09-08T01:04:03;6.40;;;5.78;;
15285;SDS011;7744;52.172;10.668;2023-09-08T01:06:29;6.90;;;6.20;;
15285;SDS011;7744;52.172;10.668;2023-09-08T01:08:57;7.00;;;6.32;;
15285;SDS011;7744;52.172;10.668;2023-09-08T01:11:24;6.78;;;6.07;;
15285;SDS011;7744;52.172;10.668;2023-09-08T01:13:50;6.65;;;6.00;;
15285;SDS011;7744;52.172;10.668;2023-09-08T01:16:16;6.65;;;5.70;;
15285;SDS011;7744;52.172;10.668;2023-09-08T01:18:42;7.47;;;6.68;;
15285;SDS011;7744;52.172;10.668;2023-09-08T01:23:59;6.97;;;6.32;;
15285;SDS011;7744;52.172;10.668;2023-09-08T01:26:46;8.15;;;6.80;;
15285;SDS011;7744;52.172;10.668;2023-09-08T01:29:12;6.65;;;6.03;;
15285;SDS011;7744;52.172;10.668;2023-09-08T01:31:39;7.22;;;6.50;;
15285;SDS011;7744;52.172;10.668;2023-09-08T01:34:05;6.22;;;5.63;;
15285;SDS011;7744;52.172;10.668;2023-09-08T01:36:35;6.68;;;6.07;;
15285;SDS011;7744;52.172;10.668;2023-09-08T01:39:01;8.27;;;6.10;;
15285;SDS011;7744;52.172;10.668;2023-09-08T01:41:27;7.88;;;6.38;;
15285;SDS011;7744;52.172;10.668;2023-09-08T01:43:52;6.55;;;5.80;;
15285;SDS011;7744;52.172;10.668;2023-09-08T01:46:19;6.38;;;5.78;;
15285;SDS011;7744;52.172;10.668;2023-09-08T01:48:45;6.80;;;6.15;;
15285;SDS011;7744;52.172;10.668;2023-09-08T01:51:10;6.70;;;6.10;;
15285;SDS011;7744;52.172;10.668;2023-09-08T01:53:36;6.80;;;6.20;;
15285;SDS011;7744;52.172;10.668;2023-09-08T01:56:02;8.93;;;6.68;;
15285;SDS011;7744;52.172;10.668;2023-09-08T01:58:27;6.90;;;6.22;;
15285;SDS011;7744;52.172;10.668;2023-09-08T02:00:54;6.55;;;5.95;;
15285;SDS011;7744;52.172;10.668;2023-09-08T02:03:20;6.80;;;6.20;;
15285;SDS011;7744;52.172;10.668;2023-09-08T02:05:46;7.00;;;6.30;;
15285;SDS011;7744;52.172;10.668;2023-09-08T02:08:11;8.50;;;6.78;;
15285;SDS011;7744;52.172;10.668;2023-09-08T02:10:39;7.38;;;6.70;;
15285;SDS011;7744;52.172;10.668;2023-09-08T02:13:05;8.00;;;7.28;;
15285;SDS011;7744;52.172;10.668;2023-09-08T02:15:31;7.88;;;6.90;;
15285;SDS011;7744;52.172;10.668;2023-09-08T02:17:59;8.65;;;6.90;;
15285;SDS011;7744;52.172;10.668;2023-09-08T02:20:25;9.05;;;7.25;;
15285;SDS011;7744;52.172;10.668;2023-09-08T02:22:53;8.25;;;7.45;;
15285;SDS011;7744;52.172;10.668;2023-09-08T02:25:19;8.00;;;7.20;;
15285;SDS011;7744;52.172;10.668;2023-09-08T02:27:45;8.15;;;7.45;;
15285;SDS011;7744;52.172;10.668;2023-09-08T02:30:11;7.97;;;7.18;;
15285;SDS011;7744;52.172;10.668;2023-09-08T02:32:36;7.20;;;6.60;;
15285;SDS011;7744;52.172;10.668;2023-09-08T02:35:02;7.80;;;7.10;;
15285;SDS011;7744;52.172;10.668;2023-09-08T02:37:28;8.00;;;7.25;;
15285;SDS011;7744;52.172;10.668;2023-09-08T02:39:53;8.57;;;7.72;;
15285;SDS011;7744;52.172;10.668;2023-09-08T02:42:19;13.52;;;8.48;;
15285;SDS011;7744;52.172;10.668;2023-09-08T02:44:44;10.20;;;7.72;;
15285;SDS011;7744;52.172;10.668;2023-09-08T02:47:10;7.97;;;7.18;;
15285;SDS011;7744;52.172;10.668;2023-09-08T02:49:35;9.85;;;8.02;;
15285;SDS011;7744;52.172;10.668;2023-09-08T02:52:01;9.00;;;8.05;;
15285;SDS011;7744;52.172;10.668;2023-09-08T02:54:27;8.23;;;7.45;;
15285;SDS011;7744;52.172;10.668;2023-09-08T02:56:52;8.30;;;7.50;;
15285;SDS011;7744;52.172;10.668;2023-09-08T02:59:18;7.93;;;7.03;;
15285;SDS011;7744;52.172;10.668;2023-09-08T03:01:44;9.02;;;8.13;;
15285;SDS011;7744;52.172;10.668;2023-09-08T03:04:09;8.13;;;7.32;;
15285;SDS011;7744;52.172;10.668;2023-09-08T03:06:35;8.85;;;7.93;;
15285;SDS011;7744;52.172;10.668;2023-09-08T03:09:00;8.43;;;7.60;;
15285;SDS011;7744;52.172;10.668;2023-09-08T03:11:26;9.00;;;8.13;;
15285;SDS011;7744;52.172;10.668;2023-09-08T03:13:52;9.50;;;8.50;;
15285;SDS011;7744;52.172;10.668;2023-09-08T03:16:17;8.63;;;7.70;;
15285;SDS011;7744;52.172;10.668;2023-09-08T03:18:43;8.57;;;7.40;;
15285;SDS011;7744;52.172;10.668;2023-09-08T03:21:08;8.57;;;7.65;;
15285;SDS011;7744;52.172;10.668;2023-09-08T03:23:38;8.52;;;7.72;;
15285;SDS011;7744;52.172;10.668;2023-09-08T03:26:04;9.45;;;7.85;;
15285;SDS011;7744;52.172;10.668;2023-09-08T03:28:31;8.13;;;7.32;;
15285;SDS011;7744;52.172;10.668;2023-09-08T03:30:57;9.57;;;7.80;;
15285;SDS011;7744;52.172;10.668;2023-09-08T03:33:23;8.93;;;8.05;;
15285;SDS011;7744;52.172;10.668;2023-09-08T03:35:48;8.93;;;8.07;;
15285;SDS011;7744;52.172;10.668;2023-09-08T03:38:14;12.00;;;8.90;;
15285;SDS011;7744;52.172;10.668;2023-09-08T03:40:40;8.73;;;7.90;;
15285;SDS011;7744;52.172;10.668;2023-09-08T03:43:05;8.70;;;7.80;;
15285;SDS011;7744;52.172;10.668;2023-09-08T03:45:31;8.40;;;7.60;;
15285;SDS011;7744;52.172;10.668;2023-09-08T03:47:57;8.57;;;7.68;;
15285;SDS011;7744;52.172;10.668;2023-09-08T03:50:23;7.95;;;7.15;;
15285;SDS011;7744;52.172;10.668;2023-09-08T03:52:49;8.20;;;7.35;;
15285;SDS011;7744;52.172;10.668;2023-09-08T03:55:15;8.85;;;7.75;;
15285;SDS011;7744;52.172;10.668;2023-09-08T03:57:42;9.02;;;8.13;;
15285;SDS011;7744;52.172;10.668;2023-09-08T04:00:07;8.68;;;7.88;;
15285;SDS011;7744;52.172;10.668;2023-09-08T04:02:35;8.95;;;8.05;;
15285;SDS011;7744;52.172;10.668;2023-09-08T04:05:01;8.50;;;7.70;;
15285;SDS011;7744;52.172;10.668;2023-09-08T04:07:27;8.65;;;7.78;;
15285;SDS011;7744;52.172;10.668;2023-09-08T04:09:53;8.35;;;7.07;;
15285;SDS011;7744;52.172;10.668;2023-09-08T04:12:18;8.25;;;7.43;;
15285;SDS011;7744;52.172;10.668;2023-09-08T04:14:44;8.32;;;7.53;;
15285;SDS011;7744;52.172;10.668;2023-09-08T04:17:09;8.52;;;7.72;;
15285;SDS011;7744;52.172;10.668;2023-09-08T04:19:35;9.43;;;8.48;;
15285;SDS011;7744;52.172;10.668;2023-09-08T04:22:01;8.90;;;8.00;;
15285;SDS011;7744;52.172;10.668;2023-09-08T04:24:26;9.05;;;7.85;;
15285;SDS011;7744;52.172;10.668;2023-09-08T04:26:52;8.18;;;7.38;;
15285;SDS011;7744;52.172;10.668;2023-09-08T04:29:18;8.15;;;7.40;;
15285;SDS011;7744;52.172;10.668;2023-09-08T04:31:43;8.23;;;7.43;;
15285;SDS011;7744;52.172;10.668;2023-09-08T04:34:09;8.77;;;7.70;;
15285;SDS011;7744;52.172;10.668;2023-09-08T04:36:35;10.68;;;8.25;;
15285;SDS011;7744;52.172;10.668;2023-09-08T04:39:00;10.55;;;7.72;;
15285;SDS011;7744;52.172;10.668;2023-09-08T04:41:26;8.75;;;7.88;;
15285;SDS011;7744;52.172;10.668;2023-09-08T04:43:51;9.73;;;7.32;;
15285;SDS011;7744;52.172;10.668;2023-09-08T04:46:17;9.07;;;8.18;;
15285;SDS011;7744;52.172;10.668;2023-09-08T04:48:43;8.50;;;7.70;;
15285;SDS011;7744;52.172;10.668;2023-09-08T04:51:08;9.00;;;8.10;;
15285;SDS011;7744;52.172;10.668;2023-09-08T04:53:34;7.80;;;7.05;;
15285;SDS011;7744;52.172;10.668;2023-09-08T04:56:01;8.82;;;8.02;;
15285;SDS011;7744;52.172;10.668;2023-09-08T04:58:27;8.23;;;7.35;;
15285;SDS011;7744;52.172;10.668;2023-09-08T05:00:52;8.82;;;7.93;;
15285;SDS011;7744;52.172;10.668;2023-09-08T05:03:18;8.80;;;7.95;;
15285;SDS011;7744;52.172;10.668;2023-09-08T05:05:44;8.48;;;7.68;;
15285;SDS011;7744;52.172;10.668;2023-09-08T05:08:10;8.80;;;8.00;;
15285;SDS011;7744;52.172;10.668;2023-09-08T05:10:35;9.00;;;8.10;;
15285;SDS011;7744;52.172;10.668;2023-09-08T05:13:01;8.10;;;7.30;;
15285;SDS011;7744;52.172;10.668;2023-09-08T05:15:26;8.48;;;7.57;;
15285;SDS011;7744;52.172;10.668;2023-09-08T05:17:52;10.70;;;7.85;;
15285;SDS011;7744;52.172;10.668;2023-09-08T05:20:18;8.07;;;7.38;;
15285;SDS011;7744;52.172;10.668;2023-09-08T05:22:43;8.95;;;8.05;;
15285;SDS011;7744;52.172;10.668;2023-09-08T05:25:09;8.48;;;7.68;;
15285;SDS011;7744;52.172;10.668;2023-09-08T05:27:35;9.27;;;8.38;;
15285;SDS011;7744;52.172;10.668;2023-09-08T05:30:01;9.95;;;8.95;;
15285;SDS011;7744;52.172;10.668;2023-09-08T05:32:26;8.55;;;7.75;;
15285;SDS011;7744;52.172;10.668;2023-09-08T05:34:52;10.90;;;8.48;;
15285;SDS011;7744;52.172;10.668;2023-09-08T05:37:18;9.18;;;8.38;;
15285;SDS011;7744;52.172;10.668;2023-09-08T05:39:43;10.25;;;8.90;;
15285;SDS011;7744;52.172;10.668;2023-09-08T05:42:09;12.50;;;9.30;;
15285;SDS011;7744;52.172;10.668;2023-09-08T05:44:34;9.05;;;8.25;;
15285;SDS011;7744;52.172;10.668;2023-09-08T05:47:00;9.50;;;8.23;;
15285;SDS011;7744;52.172;10.668;2023-09-08T05:49:25;9.88;;;8.88;;
15285;SDS011;7744;52.172;10.668;2023-09-08T05:51:51;10.13;;;9.20;;
15285;SDS011;7744;52.172;10.668;2023-09-08T05:54:17;8.60;;;7.80;;
15285;SDS011;7744;52.172;10.668;2023-09-08T05:56:43;11.38;;;9.40;;
15285;SDS011;7744;52.172;10.668;2023-09-08T05:59:09;10.40;;;9.40;;
15285;SDS011;7744;52.172;10.668;2023-09-08T06:01:35;9.57;;;8.57;;
15285;SDS011;7744;52.172;10.668;2023-09-08T06:04:02;10.63;;;9.63;;
15285;SDS011;7744;52.172;10.668;2023-09-08T06:06:27;12.85;;;10.55;;
15285;SDS011;7744;52.172;10.668;2023-09-08T06:08:54;13.13;;;11.73;;
15285;SDS011;7744;52.172;10.668;2023-09-08T06:11:19;12.35;;;11.13;;
15285;SDS011;7744;52.172;10.668;2023-09-08T06:13:45;11.32;;;10.20;;
15285;SDS011;7744;52.172;10.668;2023-09-08T06:16:11;12.35;;;11.15;;
15285;SDS011;7744;52.172;10.668;2023-09-08T06:18:36;11.77;;;10.57;;
15285;SDS011;7744;52.172;10.668;2023-09-08T06:21:07;11.02;;;9.93;;
15285;SDS011;7744;52.172;10.668;2023-09-08T06:23:33;11.88;;;10.77;;
15285;SDS011;7744;52.172;10.668;2023-09-08T06:25:59;12.23;;;11.07;;
15285;SDS011;7744;52.172;10.668;2023-09-08T06:28:28;10.38;;;9.38;;
15285;SDS011;7744;52.172;10.668;2023-09-08T06:30:54;11.27;;;10.15;;
15285;SDS011;7744;52.172;10.668;2023-09-08T06:33:20;11.98;;;10.80;;
15285;SDS011;7744;52.172;10.668;2023-09-08T06:35:47;13.40;;;10.93;;
15285;SDS011;7744;52.172;10.668;2023-09-08T06:38:13;12.05;;;10.95;;
15285;SDS011;7744;52.172;10.668;2023-09-08T06:40:39;12.27;;;11.07;;
15285;SDS011;7744;52.172;10.668;2023-09-08T06:43:04;12.95;;;11.65;;
15285;SDS011;7744;52.172;10.668;2023-09-08T06:45:30;12.75;;;11.10;;
15285;SDS011;7744;52.172;10.668;2023-09-08T06:47:56;11.55;;;10.45;;
15285;SDS011;7744;52.172;10.668;2023-09-08T06:50:22;12.23;;;10.57;;
15285;SDS011;7744;52.172;10.668;2023-09-08T06:52:48;10.73;;;9.63;;
15285;SDS011;7744;52.172;10.668;2023-09-08T06:55:15;11.90;;;9.38;;
15285;SDS011;7744;52.172;10.668;2023-09-08T06:57:44;11.02;;;8.48;;
15285;SDS011;7744;52.172;10.668;2023-09-08T07:00:10;9.60;;;8.70;;
15285;SDS011;7744;52.172;10.668;2023-09-08T07:02:37;9.55;;;8.57;;
15285;SDS011;7744;52.172;10.668;2023-09-08T07:05:03;10.30;;;9.20;;
15285;SDS011;7744;52.172;10.668;2023-09-08T07:07:36;9.40;;;8.50;;
15285;SDS011;7744;52.172;10.668;2023-09-08T07:10:03;9.40;;;8.30;;
15285;SDS011;7744;52.172;10.668;2023-09-08T07:12:29;9.07;;;8.13;;
15285;SDS011;7744;52.172;10.668;2023-09-08T07:14:55;9.23;;;8.25;;
15285;SDS011;7744;52.172;10.668;2023-09-08T07:17:21;8.88;;;8.07;;
15285;SDS011;7744;52.172;10.668;2023-09-08T07:19:48;8.40;;;7.60;;
15285;SDS011;7744;52.172;10.668;2023-09-08T07:22:14;8.45;;;7.68;;
15285;SDS011;7744;52.172;10.668;2023-09-08T07:24:40;8.75;;;7.63;;
15285;SDS011;7744;52.172;10.668;2023-09-08T07:27:05;7.90;;;7.07;;
15285;SDS011;7744;52.172;10.668;2023-09-08T07:29:31;7.85;;;7.13;;
15285;SDS011;7744;52.172;10.668;2023-09-08T07:31:57;8.50;;;6.88;;
15285;SDS011;7744;52.172;10.668;2023-09-08T07:34:23;7.40;;;6.70;;
15285;SDS011;7744;52.172;10.668;2023-09-08T07:36:48;8.27;;;7.25;;
15285;SDS011;7744;52.172;10.668;2023-09-08T07:39:14;8.57;;;6.63;;
15285;SDS011;7744;52.172;10.668;2023-09-08T07:41:40;9.65;;;6.60;;
15285;SDS011;7744;52.172;10.668;2023-09-08T07:44:06;8.88;;;6.93;;
15285;SDS011;7744;52.172;10.668;2023-09-08T07:46:32;6.72;;;6.13;;
15285;SDS011;7744;52.172;10.668;2023-09-08T07:48:58;7.20;;;6.50;;
15285;SDS011;7744;52.172;10.668;2023-09-08T07:51:24;7.35;;;6.15;;
15285;SDS011;7744;52.172;10.668;2023-09-08T07:53:50;9.20;;;6.05;;
15285;SDS011;7744;52.172;10.668;2023-09-08T07:56:16;8.23;;;6.07;;
15285;SDS011;7744;52.172;10.668;2023-09-08T07:58:42;6.35;;;5.65;;
15285;SDS011;7744;52.172;10.668;2023-09-08T08:01:07;6.32;;;5.72;;
15285;SDS011;7744;52.172;10.668;2023-09-08T08:03:33;6.35;;;5.75;;
15285;SDS011;7744;52.172;10.668;2023-09-08T08:06:02;6.00;;;5.50;;
15285;SDS011;7744;52.172;10.668;2023-09-08T08:08:28;6.45;;;5.68;;
15285;SDS011;7744;52.172;10.668;2023-09-08T08:10:53;5.90;;;4.88;;
15285;SDS011;7744;52.172;10.668;2023-09-08T08:13:19;7.28;;;5.55;;
15285;SDS011;7744;52.172;10.668;2023-09-08T08:15:45;5.88;;;5.07;;
15285;SDS011;7744;52.172;10.668;2023-09-08T08:18:12;7.30;;;4.65;;
15285;SDS011;7744;52.172;10.668;2023-09-08T08:20:38;5.70;;;5.20;;
15285;SDS011;7744;52.172;10.668;2023-09-08T08:23:04;6.70;;;5.10;;
15285;SDS011;7744;52.172;10.668;2023-09-08T08:25:31;6.55;;;5.30;;
15285;SDS011;7744;52.172;10.668;2023-09-08T08:27:58;6.63;;;5.30;;
15285;SDS011;7744;52.172;10.668;2023-09-08T08:30:25;7.47;;;5.32;;
15285;SDS011;7744;52.172;10.668;2023-09-08T08:32:51;6.15;;;5.55;;
15285;SDS011;7744;52.172;10.668;2023-09-08T08:35:18;7.72;;;5.20;;
15285;SDS011;7744;52.172;10.668;2023-09-08T08:37:44;6.47;;;5.38;;
15285;SDS011;7744;52.172;10.668;2023-09-08T08:40:10;6.25;;;5.13;;
15285;SDS011;7744;52.172;10.668;2023-09-08T08:42:37;5.85;;;5.15;;
15285;SDS011;7744;52.172;10.668;2023-09-08T08:45:03;8.65;;;5.90;;
15285;SDS011;7744;52.172;10.668;2023-09-08T08:47:29;7.43;;;4.97;;
15285;SDS011;7744;52.172;10.668;2023-09-08T08:49:55;8.40;;;5.72;;
15285;SDS011;7744;52.172;10.668;2023-09-08T08:52:23;5.30;;;4.75;;
15285;SDS011;7744;52.172;10.668;2023-09-08T08:54:53;6.65;;;5.10;;
15285;SDS011;7744;52.172;10.668;2023-09-08T08:57:19;9.07;;;4.95;;
15285;SDS011;7744;52.172;10.668;2023-09-08T08:59:46;5.85;;;5.35;;
15285;SDS011;7744;52.172;10.668;2023-09-08T09:02:14;8.23;;;5.03;;
15285;SDS011;7744;52.172;10.668;2023-09-08T09:04:40;6.63;;;4.97;;
15285;SDS011;7744;52.172;10.668;2023-09-08T09:07:06;5.72;;;4.65;;
15285;SDS011;7744;52.172;10.668;2023-09-08T09:09:32;5.38;;;4.60;;
15285;SDS011;7744;52.172;10.668;2023-09-08T09:11:58;7.15;;;4.60;;
15285;SDS011;7744;52.172;10.668;2023-09-08T09:14:24;5.75;;;4.47;;
15285;SDS011;7744;52.172;10.668;2023-09-08T09:16:49;5.85;;;4.32;;
15285;SDS011;7744;52.172;10.668;2023-09-08T09:19:22;4.88;;;4.43;;
15285;SDS011;7744;52.172;10.668;2023-09-08T09:21:56;5.72;;;4.35;;
15285;SDS011;7744;52.172;10.668;2023-09-08T09:27:02;4.72;;;4.20;;
15285;SDS011;7744;52.172;10.668;2023-09-08T09:29:30;5.35;;;4.38;;
15285;SDS011;7744;52.172;10.668;2023-09-08T09:31:58;6.78;;;4.75;;
15285;SDS011;7744;52.172;10.668;2023-09-08T09:34:31;4.97;;;4.50;;
15285;SDS011;7744;52.172;10.668;2023-09-08T09:36:57;4.55;;;3.97;;
15285;SDS011;7744;52.172;10.668;2023-09-08T09:39:23;6.75;;;4.57;;
15285;SDS011;7744;52.172;10.668;2023-09-08T09:41:53;5.20;;;4.38;;
15285;SDS011;7744;52.172;10.668;2023-09-08T09:44:20;6.20;;;4.30;;
15285;SDS011;7744;52.172;10.668;2023-09-08T09:46:46;4.75;;;4.13;;
15285;SDS011;7744;52.172;10.668;2023-09-08T09:49:13;4.55;;;4.15;;
15285;SDS011;7744;52.172;10.668;2023-09-08T09:51:40;6.53;;;4.75;;
15285;SDS011;7744;52.172;10.668;2023-09-08T09:54:07;7.43;;;4.20;;
15285;SDS011;7744;52.172;10.668;2023-09-08T09:56:33;5.70;;;4.22;;
15285;SDS011;7744;52.172;10.668;2023-09-08T09:59:01;6.07;;;4.32;;
15285;SDS011;7744;52.172;10.668;2023-09-08T10:01:28;6.80;;;4.38;;
15285;SDS011;7744;52.172;10.668;2023-09-08T10:03:54;6.65;;;4.35;;
15285;SDS011;7744;52.172;10.668;2023-09-08T10:06:20;5.82;;;4.40;;
15285;SDS011;7744;52.172;10.668;2023-09-08T10:08:47;6.55;;;4.60;;
15285;SDS011;7744;52.172;10.668;2023-09-08T10:11:13;4.43;;;3.90;;
15285;SDS011;7744;52.172;10.668;2023-09-08T10:13:42;5.18;;;4.18;;
15285;SDS011;7744;52.172;10.668;2023-09-08T10:16:13;4.40;;;3.72;;
15285;SDS011;7744;52.172;10.668;2023-09-08T10:18:43;5.05;;;4.53;;
15285;SDS011;7744;52.172;10.668;2023-09-08T10:21:10;6.05;;;4.43;;
15285;SDS011;7744;52.172;10.668;2023-09-08T10:23:39;5.40;;;4.20;;
15285;SDS011;7744;52.172;10.668;2023-09-08T10:26:09;4.78;;;4.28;;
15285;SDS011;7744;52.172;10.668;2023-09-08T10:28:36;6.25;;;3.88;;
15285;SDS011;7744;52.172;10.668;2023-09-08T10:31:02;7.00;;;4.32;;
15285;SDS011;7744;52.172;10.668;2023-09-08T10:33:30;5.38;;;4.28;;
15285;SDS011;7744;52.172;10.668;2023-09-08T10:35:56;7.53;;;4.50;;
15285;SDS011;7744;52.172;10.668;2023-09-08T10:38:24;5.38;;;4.10;;
15285;SDS011;7744;52.172;10.668;2023-09-08T10:40:50;5.60;;;4.30;;
15285;SDS011;7744;52.172;10.668;2023-09-08T10:43:17;4.63;;;4.20;;
15285;SDS011;7744;52.172;10.668;2023-09-08T10:45:43;5.88;;;4.15;;
15285;SDS011;7744;52.172;10.668;2023-09-08T10:48:10;6.38;;;4.15;;
15285;SDS011;7744;52.172;10.668;2023-09-08T10:50:39;5.75;;;4.35;;
15285;SDS011;7744;52.172;10.668;2023-09-08T10:53:16;4.93;;;4.53;;
15285;SDS011;7744;52.172;10.668;2023-09-08T10:58:19;5.05;;;4.15;;
15285;SDS011;7744;52.172;10.668;2023-09-08T11:01:07;4.60;;;4.07;;
15285;SDS011;7744;52.172;10.668;2023-09-08T11:06:07;6.15;;;4.15;;
15285;SDS011;7744;52.172;10.668;2023-09-08T11:08:34;4.40;;;4.00;;
15285;SDS011;7744;52.172;10.668;2023-09-08T11:11:02;6.43;;;4.10;;
15285;SDS011;7744;52.172;10.668;2023-09-08T11:13:28;4.43;;;3.85;;
15285;SDS011;7744;52.172;10.668;2023-09-08T11:15:54;6.97;;;4.30;;
15285;SDS011;7744;52.172;10.668;2023-09-08T11:18:29;4.30;;;3.80;;
15285;SDS011;7744;52.172;10.668;2023-09-08T11:20:56;6.00;;;4.20;;
15285;SDS011;7744;52.172;10.668;2023-09-08T11:23:23;4.50;;;4.10;;
15285;SDS011;7744;52.172;10.668;2023-09-08T11:25:50;5.65;;;3.97;;
15285;SDS011;7744;52.172;10.668;2023-09-08T11:28:21;4.40;;;4.00;;
15285;SDS011;7744;52.172;10.668;2023-09-08T11:30:47;4.47;;;4.07;;
15285;SDS011;7744;52.172;10.668;2023-09-08T11:33:16;5.45;;;3.85;;
15285;SDS011;7744;52.172;10.668;2023-09-08T11:35:46;5.07;;;4.57;;
15285;SDS011;7744;52.172;10.668;2023-09-08T11:38:12;5.78;;;4.50;;
15285;SDS011;7744;52.172;10.668;2023-09-08T11:40:38;6.65;;;4.07;;
15285;SDS011;7744;52.172;10.668;2023-09-08T11:43:04;6.85;;;3.92;;
15285;SDS011;7744;52.172;10.668;2023-09-08T11:45:33;4.65;;;4.20;;
15285;SDS011;7744;52.172;10.668;2023-09-08T11:48:00;5.22;;;4.30;;
15285;SDS011;7744;52.172;10.668;2023-09-08T11:50:25;5.13;;;4.13;;
15285;SDS011;7744;52.172;10.668;2023-09-08T11:52:52;7.82;;;3.95;;
15285;SDS011;7744;52.172;10.668;2023-09-08T11:55:18;5.35;;;3.60;;
15285;SDS011;7744;52.172;10.668;2023-09-08T11:57:47;5.40;;;3.80;;
15285;SDS011;7744;52.172;10.668;2023-09-08T12:00:15;6.47;;;4.40;;
15285;SDS011;7744;52.172;10.668;2023-09-08T12:02:43;4.60;;;4.20;;
15285;SDS011;7744;52.172;10.668;2023-09-08T12:05:13;6.20;;;4.15;;
15285;SDS011;7744;52.172;10.668;2023-09-08T12:07:46;5.85;;;4.13;;
15285;SDS011;7744;52.172;10.668;2023-09-08T12:10:12;4.28;;;3.88;;
15285;SDS011;7744;52.172;10.668;2023-09-08T12:12:43;6.07;;;3.80;;
15285;SDS011;7744;52.172;10.668;2023-09-08T12:18:13;4.75;;;4.30;;
15285;SDS011;7744;52.172;10.668;2023-09-08T12:20:42;6.55;;;4.20;;
15285;SDS011;7744;52.172;10.668;2023-09-08T12:23:17;4.47;;;4.00;;
15285;SDS011;7744;52.172;10.668;2023-09-08T12:25:46;5.00;;;4.18;;
15285;SDS011;7744;52.172;10.668;2023-09-08T12:28:13;4.28;;;3.83;;
15285;SDS011;7744;52.172;10.668;2023-09-08T12:30:39;4.70;;;3.80;;
15285;SDS011;7744;52.172;10.668;2023-09-08T12:33:04;4.60;;;3.58;;
15285;SDS011;7744;52.172;10.668;2023-09-08T12:35:30;6.80;;;4.28;;
15285;SDS011;7744;52.172;10.668;2023-09-08T12:37:57;4.00;;;3.60;;
15285;SDS011;7744;52.172;10.668;2023-09-08T12:40:32;5.15;;;4.03;;
15285;SDS011;7744;52.172;10.668;2023-09-08T12:42:59;4.65;;;3.83;;
15285;SDS011;7744;52.172;10.668;2023-09-08T12:45:25;4.40;;;3.78;;
15285;SDS011;7744;52.172;10.668;2023-09-08T12:47:52;4.18;;;3.78;;
15285;SDS011;7744;52.172;10.668;2023-09-08T12:50:23;5.30;;;3.88;;
15285;SDS011;7744;52.172;10.668;2023-09-08T12:52:48;6.32;;;3.55;;
15285;SDS011;7744;52.172;10.668;2023-09-08T12:55:14;5.15;;;3.78;;
15285;SDS011;7744;52.172;10.668;2023-09-08T12:57:40;4.85;;;3.80;;
15285;SDS011;7744;52.172;10.668;2023-09-08T13:00:05;4.65;;;3.88;;
15285;SDS011;7744;52.172;10.668;2023-09-08T13:02:32;5.57;;;3.70;;
15285;SDS011;7744;52.172;10.668;2023-09-08T13:04:58;4.57;;;3.88;;
15285;SDS011;7744;52.172;10.668;2023-09-08T13:07:24;4.60;;;3.83;;
15285;SDS011;7744;52.172;10.668;2023-09-08T13:09:50;4.30;;;3.80;;
15285;SDS011;7744;52.172;10.668;2023-09-08T13:12:16;6.32;;;3.58;;
15285;SDS011;7744;52.172;10.668;2023-09-08T13:14:42;4.18;;;3.80;;
15285;SDS011;7744;52.172;10.668;2023-09-08T13:17:10;6.57;;;3.95;;
15285;SDS011;7744;52.172;10.668;2023-09-08T13:19:36;4.22;;;3.80;;
15285;SDS011;7744;52.172;10.668;2023-09-08T13:22:03;6.32;;;4.00;;
15285;SDS011;7744;52.172;10.668;2023-09-08T13:24:29;4.35;;;3.80;;
15285;SDS011;7744;52.172;10.668;2023-09-08T13:26:55;5.72;;;3.60;;
15285;SDS011;7744;52.172;10.668;2023-09-08T13:29:21;4.15;;;3.75;;
15285;SDS011;7744;52.172;10.668;2023-09-08T13:31:47;5.38;;;3.20;;
15285;SDS011;7744;52.172;10.668;2023-09-08T13:34:13;5.28;;;3.42;;
15285;SDS011;7744;52.172;10.668;2023-09-08T13:36:38;4.00;;;3.60;;
15285;SDS011;7744;52.172;10.668;2023-09-08T13:39:04;4.20;;;3.90;;
15285;SDS011;7744;52.172;10.668;2023-09-08T13:44:20;4.88;;;3.60;;
15285;SDS011;7744;52.172;10.668;2023-09-08T13:46:48;9.25;;;4.28;;
15285;SDS011;7744;52.172;10.668;2023-09-08T13:49:14;6.20;;;4.10;;
15285;SDS011;7744;52.172;10.668;2023-09-08T13:51:40;4.93;;;3.90;;
15285;SDS011;7744;52.172;10.668;2023-09-08T13:54:07;5.32;;;3.85;;
15285;SDS011;7744;52.172;10.668;2023-09-08T13:56:33;5.63;;;4.40;;
15285;SDS011;7744;52.172;10.668;2023-09-08T13:58:59;4.88;;;3.75;;
15285;SDS011;7744;52.172;10.668;2023-09-08T14:01:27;4.50;;;3.75;;
15285;SDS011;7744;52.172;10.668;2023-09-08T14:03:54;6.00;;;3.80;;
15285;SDS011;7744;52.172;10.668;2023-09-08T14:06:20;4.70;;;3.42;;
15285;SDS011;7744;52.172;10.668;2023-09-08T14:08:47;6.82;;;3.85;;
15285;SDS011;7744;52.172;10.668;2023-09-08T14:11:12;6.15;;;3.72;;
15285;SDS011;7744;52.172;10.668;2023-09-08T14:13:38;4.43;;;3.80;;
15285;SDS011;7744;52.172;10.668;2023-09-08T14:16:03;6.32;;;4.00;;
15285;SDS011;7744;52.172;10.668;2023-09-08T14:18:29;6.78;;;3.78;;
15285;SDS011;7744;52.172;10.668;2023-09-08T14:20:55;3.97;;;3.45;;
15285;SDS011;7744;52.172;10.668;2023-09-08T14:23:21;4.10;;;3.65;;
15285;SDS011;7744;52.172;10.668;2023-09-08T14:25:46;5.40;;;3.70;;
15285;SDS011;7744;52.172;10.668;2023-09-08T14:28:12;4.28;;;3.53;;
15285;SDS011;7744;52.172;10.668;2023-09-08T14:30:38;4.32;;;3.20;;
15285;SDS011;7744;52.172;10.668;2023-09-08T14:33:05;4.13;;;3.55;;
15285;SDS011;7744;52.172;10.668;2023-09-08T14:35:31;4.68;;;3.65;;
15285;SDS011;7744;52.172;10.668;2023-09-08T14:37:57;6.10;;;3.58;;
15285;SDS011;7744;52.172;10.668;2023-09-08T14:40:23;3.97;;;3.58;;
15285;SDS011;7744;52.172;10.668;2023-09-08T14:42:49;8.70;;;3.67;;
15285;SDS011;7744;52.172;10.668;2023-09-08T14:45:14;5.15;;;3.80;;
15285;SDS011;7744;52.172;10.668;2023-09-08T14:47:40;4.45;;;3.40;;
15285;SDS011;7744;52.172;10.668;2023-09-08T14:50:06;4.15;;;3.85;;
15285;SDS011;7744;52.172;10.668;2023-09-08T14:52:32;3.90;;;3.58;;
15285;SDS011;7744;52.172;10.668;2023-09-08T14:54:58;3.95;;;3.60;;
15285;SDS011;7744;52.172;10.668;2023-09-08T14:57:23;5.45;;;3.90;;